21kousinmaru — JD2168 — position and weather

sailwx.info

Track history (hours):
 
Tides and Currents Weather Stations Pressure Air Temp Water Temp Dewpoint Dewpoint Depression Visibility Wind Speed Wind Dir Waves Ship Positions

21kousinmaru

Last reported at 2016-Jul-29 01:34 UTC. Time now 2016-Jul-29 02:06 UTC.
Position N 35°30' E 139°45'.

Length 68 m; draft 4.5 m.

MMSI: 431501835.

Date/timePositionNaut miles runAvg speedWind from/ knotsBaromVisibWave heightAir tempDewpointWater temp
2016-Jul-29 01:34N 35°30' E 139°45'0 0.0
2016-Jul-29 00:33N 35°30' E 139°45'0 0.0
2016-Jul-28 23:33N 35°30' E 139°45'4 3.7
2016-Jul-28 22:33N 35°29' E 139°49'0 0.0
2016-Jul-28 21:33N 35°29' E 139°49'0 0.0
2016-Jul-28 20:33N 35°29' E 139°49'10 9.9
2016-Jul-28 19:33N 35°20' E 139°44'1212.1
2016-Jul-28 18:33N 35°08' E 139°46'9 0.3
2016-Jul-27 06:29N 35°17' E 139°45'1010.3
2016-Jul-27 05:34N 35°26' E 139°46'1212.2
2016-Jul-27 04:33N 35°32' E 139°59'5 5.0
2016-Jul-27 03:33N 35°33' E 140°05'0 0.0
2016-Jul-27 02:33N 35°33' E 140°05'0 0.0
2016-Jul-27 01:33N 35°33' E 140°05'0 0.0
2016-Jul-27 00:33N 35°33' E 140°05'1 1.0
2016-Jul-26 23:33N 35°33' E 140°04'8 7.8
2016-Jul-26 22:33N 35°35' E 139°55'0 0.0
2016-Jul-26 21:33N 35°35' E 139°55'0 0.0
2016-Jul-26 20:33N 35°35' E 139°55'0 0.0
2016-Jul-26 19:33N 35°35' E 139°55'0 0.0
2016-Jul-26 18:33N 35°35' E 139°55'0 0.0
2016-Jul-26 17:33N 35°35' E 139°55'0 0.0
2016-Jul-26 16:34N 35°35' E 139°55'0 0.0
2016-Jul-26 15:33N 35°35' E 139°55'0 0.0
2016-Jul-26 14:33N 35°35' E 139°55'0 0.0
2016-Jul-26 13:33N 35°35' E 139°55'0 0.1
2016-Jul-26 12:33N 35°35' E 139°55'0 0.0
2016-Jul-26 11:33N 35°35' E 139°55'0 0.0
2016-Jul-26 10:33N 35°35' E 139°55'0 0.0
2016-Jul-26 09:33N 35°35' E 139°55'0 0.0
2016-Jul-26 08:32N 35°35' E 139°55'0 0.1
2016-Jul-26 07:33N 35°35' E 139°55'0 0.0
2016-Jul-26 06:33N 35°35' E 139°55'0 0.0
2016-Jul-26 05:33N 35°35' E 139°55'0 0.0
2016-Jul-26 04:33N 35°35' E 139°55'0 0.0
2016-Jul-26 03:33N 35°35' E 139°55'10 9.5
2016-Jul-26 02:33N 35°34' E 140°07'0 0.1
2016-Jul-26 01:33N 35°34' E 140°07'0 0.0
2016-Jul-26 00:33N 35°34' E 140°07'0 0.0
2016-Jul-25 23:33N 35°34' E 140°07'2 1.9
2016-Jul-25 22:33N 35°33' E 140°05'0 0.0
2016-Jul-25 21:33N 35°33' E 140°05'0 0.0
2016-Jul-25 20:33N 35°33' E 140°05'0 0.0
2016-Jul-25 19:33N 35°33' E 140°05'0 0.0
2016-Jul-25 18:33N 35°33' E 140°05'0 0.1
2016-Jul-25 17:33N 35°33' E 140°05'0 0.0
2016-Jul-25 16:33N 35°33' E 140°05'0 0.0
2016-Jul-25 15:33N 35°33' E 140°05'0 0.0
2016-Jul-25 14:33N 35°33' E 140°05'0 0.0
2016-Jul-25 13:33N 35°33' E 140°05'0 0.0
2016-Jul-25 12:33N 35°33' E 140°05'0 0.0
2016-Jul-25 11:33N 35°33' E 140°05'0 0.0
2016-Jul-25 10:33N 35°33' E 140°05'0 0.0
2016-Jul-25 09:33N 35°33' E 140°05'0 0.0
2016-Jul-25 08:33N 35°33' E 140°05'0 0.0
2016-Jul-25 07:33N 35°33' E 140°05'0 0.0
2016-Jul-25 06:33N 35°33' E 140°05'3 3.1
2016-Jul-25 05:33N 35°31' E 140°02'0 0.0
2016-Jul-25 04:33N 35°31' E 140°02'0 0.0
2016-Jul-25 03:33N 35°31' E 140°02'0 0.0
2016-Jul-25 02:33N 35°31' E 140°02'0 0.2
2016-Jul-25 01:33N 35°31' E 140°02'7 6.5
2016-Jul-25 00:34N 35°29' E 139°55'0 0.1
2016-Jul-24 23:33N 35°29' E 139°55'0 0.0
2016-Jul-24 22:33N 35°29' E 139°55'0 0.0
2016-Jul-24 21:33N 35°29' E 139°55'0 0.1
2016-Jul-24 20:33N 35°29' E 139°55'0 0.0
2016-Jul-24 19:33N 35°29' E 139°55'0 0.0
2016-Jul-24 18:33N 35°29' E 139°55'0 0.0
2016-Jul-24 17:33N 35°29' E 139°55'0 0.0
2016-Jul-24 16:33N 35°29' E 139°55'0 0.0
2016-Jul-24 15:33N 35°29' E 139°55'0 0.0
2016-Jul-24 14:33N 35°29' E 139°55'0 0.0
2016-Jul-24 13:34N 35°29' E 139°55'10 9.8
2016-Jul-24 12:33N 35°22' E 139°45'1211.4
2016-Jul-24 11:29N 35°10' E 139°46'  
2016-Jul-22 07:17N 34°07' E 135°04'2 0.2
2016-Jul-21 17:07N 34°07' E 135°07'0 0.0
2016-Jul-19 22:17N 34°07' E 135°08'0 0.1
2016-Jul-19 21:26N 34°07' E 135°08'  
Track history (hours):
 
Tides and Currents Weather Stations Pressure Air Temp Water Temp Dewpoint Dewpoint Depression Visibility Wind Speed Wind Dir Waves Ship Positions

21kousinmaru

Last reported at 2016-Jul-29 01:34 UTC. Time now 2016-Jul-29 02:06 UTC.
Position N 35°30' E 139°45'.

Length 68 m; draft 4.5 m.

MMSI: 431501835.

Date/timePositionNaut miles runAvg speedWind from/ knotsBaromVisibWave heightAir tempDewpointWater temp
2016-Jul-29 01:34N 35°30' E 139°45'0 0.0
2016-Jul-29 00:33N 35°30' E 139°45'0 0.0
2016-Jul-28 23:33N 35°30' E 139°45'4 3.7
2016-Jul-28 22:33N 35°29' E 139°49'0 0.0
2016-Jul-28 21:33N 35°29' E 139°49'0 0.0
2016-Jul-28 20:33N 35°29' E 139°49'10 9.9
2016-Jul-28 19:33N 35°20' E 139°44'1212.1
2016-Jul-28 18:33N 35°08' E 139°46'9 0.3
2016-Jul-27 06:29N 35°17' E 139°45'1010.3
2016-Jul-27 05:34N 35°26' E 139°46'1212.2
2016-Jul-27 04:33N 35°32' E 139°59'5 5.0
2016-Jul-27 03:33N 35°33' E 140°05'0 0.0
2016-Jul-27 02:33N 35°33' E 140°05'0 0.0
2016-Jul-27 01:33N 35°33' E 140°05'0 0.0
2016-Jul-27 00:33N 35°33' E 140°05'1 1.0
2016-Jul-26 23:33N 35°33' E 140°04'8 7.8
2016-Jul-26 22:33N 35°35' E 139°55'0 0.0
2016-Jul-26 21:33N 35°35' E 139°55'0 0.0
2016-Jul-26 20:33N 35°35' E 139°55'0 0.0
2016-Jul-26 19:33N 35°35' E 139°55'0 0.0
2016-Jul-26 18:33N 35°35' E 139°55'0 0.0
2016-Jul-26 17:33N 35°35' E 139°55'0 0.0
2016-Jul-26 16:34N 35°35' E 139°55'0 0.0
2016-Jul-26 15:33N 35°35' E 139°55'0 0.0
2016-Jul-26 14:33N 35°35' E 139°55'0 0.0
2016-Jul-26 13:33N 35°35' E 139°55'0 0.1
2016-Jul-26 12:33N 35°35' E 139°55'0 0.0
2016-Jul-26 11:33N 35°35' E 139°55'0 0.0
2016-Jul-26 10:33N 35°35' E 139°55'0 0.0
2016-Jul-26 09:33N 35°35' E 139°55'0 0.0
2016-Jul-26 08:32N 35°35' E 139°55'0 0.1
2016-Jul-26 07:33N 35°35' E 139°55'0 0.0
2016-Jul-26 06:33N 35°35' E 139°55'0 0.0
2016-Jul-26 05:33N 35°35' E 139°55'0 0.0
2016-Jul-26 04:33N 35°35' E 139°55'0 0.0
2016-Jul-26 03:33N 35°35' E 139°55'10 9.5
2016-Jul-26 02:33N 35°34' E 140°07'0 0.1
2016-Jul-26 01:33N 35°34' E 140°07'0 0.0
2016-Jul-26 00:33N 35°34' E 140°07'0 0.0
2016-Jul-25 23:33N 35°34' E 140°07'2 1.9
2016-Jul-25 22:33N 35°33' E 140°05'0 0.0
2016-Jul-25 21:33N 35°33' E 140°05'0 0.0
2016-Jul-25 20:33N 35°33' E 140°05'0 0.0
2016-Jul-25 19:33N 35°33' E 140°05'0 0.0
2016-Jul-25 18:33N 35°33' E 140°05'0 0.1
2016-Jul-25 17:33N 35°33' E 140°05'0 0.0
2016-Jul-25 16:33N 35°33' E 140°05'0 0.0
2016-Jul-25 15:33N 35°33' E 140°05'0 0.0
2016-Jul-25 14:33N 35°33' E 140°05'0 0.0
2016-Jul-25 13:33N 35°33' E 140°05'0 0.0
2016-Jul-25 12:33N 35°33' E 140°05'0 0.0
2016-Jul-25 11:33N 35°33' E 140°05'0 0.0
2016-Jul-25 10:33N 35°33' E 140°05'0 0.0
2016-Jul-25 09:33N 35°33' E 140°05'0 0.0
2016-Jul-25 08:33N 35°33' E 140°05'0 0.0
2016-Jul-25 07:33N 35°33' E 140°05'0 0.0
2016-Jul-25 06:33N 35°33' E 140°05'3 3.1
2016-Jul-25 05:33N 35°31' E 140°02'0 0.0
2016-Jul-25 04:33N 35°31' E 140°02'0 0.0
2016-Jul-25 03:33N 35°31' E 140°02'0 0.0
2016-Jul-25 02:33N 35°31' E 140°02'0 0.2
2016-Jul-25 01:33N 35°31' E 140°02'7 6.5
2016-Jul-25 00:34N 35°29' E 139°55'0 0.1
2016-Jul-24 23:33N 35°29' E 139°55'0 0.0
2016-Jul-24 22:33N 35°29' E 139°55'0 0.0
2016-Jul-24 21:33N 35°29' E 139°55'0 0.1
2016-Jul-24 20:33N 35°29' E 139°55'0 0.0
2016-Jul-24 19:33N 35°29' E 139°55'0 0.0
2016-Jul-24 18:33N 35°29' E 139°55'0 0.0
2016-Jul-24 17:33N 35°29' E 139°55'0 0.0
2016-Jul-24 16:33N 35°29' E 139°55'0 0.0
2016-Jul-24 15:33N 35°29' E 139°55'0 0.0
2016-Jul-24 14:33N 35°29' E 139°55'0 0.0
2016-Jul-24 13:34N 35°29' E 139°55'10 9.8
2016-Jul-24 12:33N 35°22' E 139°45'1211.4
2016-Jul-24 11:29N 35°10' E 139°46'  
2016-Jul-22 07:17N 34°07' E 135°04'2 0.2
2016-Jul-21 17:07N 34°07' E 135°07'0 0.0
2016-Jul-19 22:17N 34°07' E 135°08'0 0.1
2016-Jul-19 21:26N 34°07' E 135°08'  

Dump ship's entire track history